Time,TemperatureF,DewpointF,PressureIn,WindDirection,WindDirectionDegrees,WindSpeedMPH,WindSpeedGustMPH,Humidity,HourlyPrecipIn,Conditions,Clouds,dailyrainin,SoftwareType,DateUTC
2013-07-06 00:43:00,49.0,47.0,-100.00,North,353,1.0,2.0,92,0.00,,,0.08,,2013-07-06 06:43:00,
2013-07-06 01:01:00,49.0,47.0,-100.00,North,353,1.0,2.0,92,0.00,,,0.08,,2013-07-06 07:01:00,
2013-07-06 01:12:00,50.0,46.0,-100.00,NNW,343,1.0,2.0,87,0.00,,,0.08,,2013-07-06 07:12:00,
2013-07-06 01:22:00,50.0,46.0,-100.00,NNW,343,1.0,2.0,87,0.00,,,0.08,,2013-07-06 07:22:00,
2013-07-06 01:33:00,49.0,46.0,-100.00,NNW,344,0.0,0.0,91,0.00,,,0.08,,2013-07-06 07:33:00,
2013-07-06 01:43:00,49.0,46.0,-100.00,NW,319,2.0,2.0,91,0.00,,,0.08,,2013-07-06 07:43:00,
2013-07-06 01:52:00,49.0,46.0,-100.00,NW,319,2.0,2.0,91,0.00,,,0.08,,2013-07-06 07:52:00,
2013-07-06 02:02:00,48.0,46.0,-100.00,NNW,346,1.0,1.0,91,0.00,,,0.08,,2013-07-06 08:02:00,
2013-07-06 02:11:00,48.0,46.0,-100.00,NNW,346,1.0,1.0,91,0.00,,,0.08,,2013-07-06 08:11:00,
2013-07-06 02:21:00,48.0,46.0,-100.00,NNW,346,1.0,1.0,91,0.00,,,0.08,,2013-07-06 08:21:00,
2013-07-06 02:33:00,48.0,45.0,-100.00,NNW,328,1.0,2.0,89,0.00,,,0.08,,2013-07-06 08:33:00,
2013-07-06 02:43:00,48.0,45.0,-100.00,North,10,0.0,1.0,91,0.00,,,0.08,,2013-07-06 08:43:00,
2013-07-06 02:54:00,48.0,45.0,-100.00,North,10,0.0,1.0,91,0.00,,,0.08,,2013-07-06 08:54:00,
2013-07-06 03:02:00,48.0,45.0,-100.00,NW,319,2.0,2.0,88,0.00,,,0.08,,2013-07-06 09:02:00,
2013-07-06 03:11:00,50.0,45.0,-100.00,NNW,329,5.0,6.0,83,0.00,,,0.08,,2013-07-06 09:11:00,
2013-07-06 03:22:00,50.0,45.0,-100.00,NNW,329,5.0,6.0,83,0.00,,,0.08,,2013-07-06 09:22:00,
2013-07-06 03:33:00,50.0,45.0,-100.00,NNW,329,5.0,6.0,83,0.00,,,0.08,,2013-07-06 09:33:00,
2013-07-06 03:43:00,51.0,45.0,-100.00,NW,315,3.0,5.0,78,0.00,,,0.08,,2013-07-06 09:43:00,
2013-07-06 04:02:00,49.0,44.0,-100.00,NNW,347,4.0,6.0,80,0.00,,,0.08,,2013-07-06 10:02:00,
2013-07-06 04:11:00,49.0,45.0,-100.00,WNW,282,3.0,6.0,84,0.00,,,0.08,,2013-07-06 10:11:00,
2013-07-06 04:22:00,49.0,45.0,-100.00,WNW,282,3.0,6.0,84,0.00,,,0.08,,2013-07-06 10:22:00,
2013-07-06 04:33:00,49.0,44.0,-100.00,NW,305,3.0,4.0,83,0.00,,,0.08,,2013-07-06 10:33:00,
2013-07-06 04:42:00,46.0,44.0,-100.00,North,353,1.0,2.0,93,0.00,,,0.08,,2013-07-06 10:42:00,
2013-07-06 05:01:00,46.0,44.0,-100.00,NNW,344,2.0,2.0,93,0.00,,,0.08,,2013-07-06 11:01:00,
2013-07-06 05:11:00,46.0,44.0,-100.00,WNW,299,2.0,3.0,93,0.00,,,0.08,,2013-07-06 11:11:00,
2013-07-06 05:21:00,46.0,44.0,-100.00,WNW,299,2.0,3.0,93,0.00,,,0.08,,2013-07-06 11:21:00,
2013-07-06 05:32:00,46.0,44.0,-100.00,WNW,294,4.0,6.0,92,0.00,,,0.08,,2013-07-06 11:32:00,
2013-07-06 05:42:00,46.0,44.0,-100.00,NW,320,3.0,4.0,91,0.00,,,0.08,,2013-07-06 11:42:00,
2013-07-06 05:53:00,46.0,44.0,-100.00,NW,320,3.0,4.0,91,0.00,,,0.08,,2013-07-06 11:53:00,
2013-07-06 06:00:00,47.0,44.0,-100.00,NW,313,4.0,6.0,87,0.00,,,0.08,,2013-07-06 12:00:00,
2013-07-06 06:01:00,46.0,44.0,-100.00,NW,320,3.0,4.0,91,0.00,,,0.08,,2013-07-06 12:01:00,
2013-07-06 06:11:00,47.0,44.0,-100.00,NW,323,5.0,6.0,89,0.00,,,0.08,,2013-07-06 12:11:00,
2013-07-06 06:22:00,47.0,44.0,-100.00,NW,323,5.0,6.0,89,0.00,,,0.08,,2013-07-06 12:22:00,
2013-07-06 06:33:00,47.0,44.0,-100.00,NNW,337,4.0,5.0,89,0.00,,,0.08,,2013-07-06 12:33:00,
2013-07-06 06:43:00,47.0,44.0,-100.00,NW,313,4.0,6.0,87,0.00,,,0.08,,2013-07-06 12:43:00,
2013-07-06 07:22:00,45.0,44.0,-100.00,NNE,17,0.0,1.0,93,0.00,,,0.08,,2013-07-06 13:22:00,
2013-07-06 07:33:00,45.0,44.0,-100.00,NW,323,3.0,5.0,93,0.00,,,0.08,,2013-07-06 13:33:00,
2013-07-06 07:52:00,47.0,44.0,-100.00,NNW,330,4.0,5.0,86,0.00,,,0.08,,2013-07-06 13:52:00,
2013-07-06 08:02:00,47.0,44.0,-100.00,NNW,330,4.0,5.0,86,0.00,,,0.08,,2013-07-06 14:02:00,
2013-07-06 08:22:00,50.0,43.0,-100.00,NW,326,5.0,6.0,78,0.00,,,0.08,,2013-07-06 14:22:00,
2013-07-06 08:42:00,54.0,43.0,-100.00,NW,325,4.0,7.0,64,0.00,,,0.08,,2013-07-06 14:42:00,
2013-07-06 09:02:00,54.0,43.0,-100.00,NW,325,4.0,7.0,64,0.00,,,0.08,,2013-07-06 15:02:00,
2013-07-06 09:12:00,54.0,43.0,-100.00,NW,325,4.0,7.0,64,0.00,,,0.08,,2013-07-06 15:12:00,
2013-07-06 09:33:00,57.0,44.0,-100.00,NW,323,4.0,6.0,60,0.00,,,0.08,,2013-07-06 15:33:00,
2013-07-06 09:43:00,58.0,42.0,-100.00,NNW,328,3.0,4.0,55,0.00,,,0.08,,2013-07-06 15:43:00,
2013-07-06 09:53:00,58.0,42.0,-100.00,NNW,328,3.0,4.0,55,0.00,,,0.08,,2013-07-06 15:53:00,
2013-07-06 10:04:00,58.0,43.0,-100.00,NW,322,3.0,4.0,56,0.00,,,0.08,,2013-07-06 16:04:00,
2013-07-06 10:12:00,58.0,43.0,-100.00,NW,322,3.0,4.0,56,0.00,,,0.08,,2013-07-06 16:12:00,
2013-07-06 10:23:00,58.0,43.0,-100.00,NW,322,3.0,4.0,56,0.00,,,0.08,,2013-07-06 16:23:00,
2013-07-06 10:35:00,62.0,44.0,-100.00,NNE,32,2.0,5.0,51,0.00,,,0.08,,2013-07-06 16:35:00,
2013-07-06 10:45:00,62.0,43.0,-100.00,SE,127,8.0,11.0,51,0.00,,,0.08,,2013-07-06 16:45:00,
2013-07-06 10:48:00,61.0,44.0,-100.00,SE,134,5.0,9.0,54,0.00,,,0.08,,2013-07-06 16:48:00,
2013-07-06 11:06:00,61.0,44.0,-100.00,SE,126,7.0,10.0,54,0.00,,,0.08,,2013-07-06 17:06:00,
2013-07-06 11:15:00,62.0,43.0,-100.00,SE,127,8.0,11.0,51,0.00,,,0.08,,2013-07-06 17:15:00,
2013-07-06 11:25:00,62.0,43.0,-100.00,SE,127,8.0,11.0,51,0.00,,,0.08,,2013-07-06 17:25:00,
2013-07-06 11:35:00,62.0,43.0,-100.00,SE,127,8.0,11.0,51,0.00,,,0.08,,2013-07-06 17:35:00,
2013-07-06 12:06:00,63.0,43.0,-100.00,ESE,107,6.0,8.0,48,0.00,,,0.08,,2013-07-06 18:06:00,
2013-07-06 12:15:00,66.0,42.0,-100.00,SE,127,7.0,11.0,41,0.00,,,0.08,,2013-07-06 18:15:00,
2013-07-06 12:37:00,64.0,41.0,-100.00,ESE,117,11.0,15.0,43,0.00,,,0.08,,2013-07-06 18:37:00,
2013-07-06 12:46:00,65.0,43.0,-100.00,SE,140,6.0,10.0,44,0.00,,,0.08,,2013-07-06 18:46:00,
2013-07-06 13:06:00,66.0,42.0,-100.00,SE,127,7.0,11.0,41,0.00,,,0.08,,2013-07-06 19:06:00,
2013-07-06 13:30:00,70.0,38.0,-100.00,SE,130,7.0,10.0,31,0.00,,,0.08,,2013-07-06 19:30:00,
2013-07-06 14:07:00,70.0,38.0,-100.00,SE,130,7.0,10.0,31,0.00,,,0.08,,2013-07-06 20:07:00,
2013-07-06 14:16:00,70.0,38.0,-100.00,SE,130,7.0,10.0,31,0.00,,,0.08,,2013-07-06 20:16:00,
2013-07-06 14:26:00,70.0,38.0,-100.00,SE,130,7.0,10.0,31,0.00,,,0.08,,2013-07-06 20:26:00,
2013-07-06 14:59:00,72.0,36.0,-100.00,SE,143,3.0,4.0,27,0.00,,,0.08,,2013-07-06 20:59:00,
2013-07-06 15:05:00,72.0,36.0,-100.00,SE,143,3.0,4.0,27,0.00,,,0.08,,2013-07-06 21:05:00,
2013-07-06 15:14:00,74.0,38.0,-100.00,SW,222,2.0,5.0,27,0.00,,,0.08,,2013-07-06 21:14:00,
2013-07-06 15:38:00,72.0,41.0,-100.00,NW,312,7.0,11.0,33,0.00,,,0.08,,2013-07-06 21:38:00,
2013-07-06 16:17:00,70.0,40.0,-100.00,NNW,346,8.0,12.0,33,0.00,,,0.06,,2013-07-06 22:17:00,
2013-07-06 16:35:00,71.0,41.0,-100.00,NNW,340,8.0,12.0,34,0.00,,,0.06,,2013-07-06 22:35:00,
2013-07-06 17:40:00,72.0,39.0,-100.00,NW,320,9.0,13.0,30,0.00,,,0.04,,2013-07-06 23:40:00,
2013-07-06 20:15:00,69.0,37.0,-100.00,NW,319,11.0,17.0,31,0.00,,,0.00,,2013-07-07 02:15:00,
2013-07-06 20:24:00,69.0,37.0,-100.00,NW,319,11.0,17.0,31,0.00,,,0.00,,2013-07-07 02:24:00,
2013-07-06 20:32:00,69.0,37.0,-100.00,NW,319,11.0,17.0,31,0.00,,,0.00,,2013-07-07 02:32:00,
2013-07-06 20:43:00,68.0,38.0,-100.00,NW,323,7.0,13.0,33,0.00,,,0.00,,2013-07-07 02:43:00,
2013-07-06 23:41:00,57.0,40.0,-100.00,NNW,332,5.0,7.0,53,0.00,,,0.00,,2013-07-07 05:41:00,
2013-07-06 23:51:00,57.0,40.0,-100.00,NNW,332,5.0,7.0,53,0.00,,,0.00,,2013-07-07 05:51:00,